createdAt,value
2019-05-18T00:01:54.767Z,9.04
2019-05-18T00:04:21.599Z,8.95
2019-05-18T00:06:48.309Z,8.86
2019-05-18T00:09:15.044Z,8.86
2019-05-18T00:11:41.863Z,8.81
2019-05-18T00:14:08.590Z,8.74
2019-05-18T00:16:35.328Z,8.68
2019-05-18T00:19:02.098Z,8.63
2019-05-18T00:21:28.798Z,8.61
2019-05-18T00:23:55.601Z,8.56
2019-05-18T00:26:22.452Z,8.52
2019-05-18T00:28:49.202Z,8.46
2019-05-18T00:31:15.962Z,8.44
2019-05-18T00:33:42.803Z,8.43
2019-05-18T00:36:09.532Z,8.42
2019-05-18T00:38:36.375Z,8.40
2019-05-18T00:41:03.180Z,8.34
2019-05-18T00:43:29.996Z,8.31
2019-05-18T00:45:56.820Z,8.27
2019-05-18T00:48:23.591Z,8.21
2019-05-18T00:50:50.335Z,8.17
2019-05-18T00:53:17.265Z,8.16
2019-05-18T00:55:44.016Z,8.06
2019-05-18T00:58:10.852Z,8.02
2019-05-18T01:00:37.581Z,8.00
2019-05-18T01:03:04.390Z,7.95
2019-05-18T01:05:31.132Z,7.88
2019-05-18T01:07:57.944Z,7.85
2019-05-18T01:10:24.747Z,7.82
2019-05-18T01:12:51.532Z,7.83
2019-05-18T01:15:18.609Z,7.81
2019-05-18T01:17:57.018Z,7.79
2019-05-18T01:20:14.165Z,7.71
2019-05-18T01:22:40.950Z,7.69
2019-05-18T01:25:07.898Z,7.66
2019-05-18T01:27:34.847Z,7.59
2019-05-18T01:30:03.316Z,7.57
2019-05-18T01:32:30.054Z,7.58
2019-05-18T01:34:56.884Z,7.54
2019-05-18T01:37:23.620Z,7.46
2019-05-18T01:39:50.418Z,7.38
2019-05-18T01:42:17.181Z,7.34
2019-05-18T01:44:43.981Z,7.32
2019-05-18T01:47:10.731Z,7.27
2019-05-18T01:49:37.539Z,7.22
2019-05-18T01:52:04.306Z,7.20
2019-05-18T01:54:31.127Z,7.15
2019-05-18T01:56:57.878Z,7.10
2019-05-18T01:59:24.670Z,6.96
2019-05-18T02:01:51.460Z,6.90
2019-05-18T02:04:18.251Z,6.87
2019-05-18T02:06:45.071Z,6.85
2019-05-18T02:09:11.816Z,6.79
2019-05-18T02:11:38.541Z,6.74
2019-05-18T02:14:05.288Z,6.67
2019-05-18T02:16:32.029Z,6.65
2019-05-18T02:18:58.812Z,6.63
2019-05-18T02:21:25.559Z,6.60
2019-05-18T02:23:52.299Z,6.56
2019-05-18T02:26:19.191Z,6.55
2019-05-18T02:28:45.989Z,6.46
2019-05-18T02:31:12.696Z,6.47
2019-05-18T02:33:39.511Z,6.44
2019-05-18T02:36:06.459Z,6.38
2019-05-18T02:38:33.139Z,6.38
2019-05-18T02:41:00.029Z,6.39
2019-05-18T02:43:26.774Z,6.36
2019-05-18T02:45:53.540Z,6.33
2019-05-18T02:48:20.296Z,6.40
2019-05-18T02:50:47.066Z,6.40
2019-05-18T02:53:13.829Z,6.35
2019-05-18T02:55:40.590Z,6.31
2019-05-18T02:58:07.312Z,6.28
2019-05-18T03:00:34.036Z,6.26
2019-05-18T03:03:00.977Z,6.25
2019-05-18T03:05:27.886Z,6.20
2019-05-18T03:07:54.633Z,6.18
2019-05-18T03:10:22.037Z,6.14
2019-05-18T03:12:48.849Z,6.12
2019-05-18T03:15:15.948Z,6.09
2019-05-18T03:17:42.690Z,6.12
2019-05-18T03:20:09.676Z,6.10
2019-05-18T03:22:36.386Z,6.08
2019-05-18T03:25:05.454Z,6.07
2019-05-18T03:27:32.160Z,6.03
2019-05-18T03:29:58.963Z,6.03
2019-05-18T03:32:25.773Z,6.06
2019-05-18T03:34:52.487Z,6.02
2019-05-18T03:37:19.274Z,6.04
2019-05-18T03:39:46.072Z,6.04
2019-05-18T03:42:12.891Z,6.02
2019-05-18T03:44:39.708Z,6.03
2019-05-18T03:47:06.500Z,6.05
2019-05-18T03:49:33.274Z,6.05
2019-05-18T03:52:00.020Z,6.03
2019-05-18T03:54:26.749Z,6.05
2019-05-18T03:56:53.552Z,6.00
2019-05-18T03:59:20.253Z,5.99
2019-05-18T04:01:47.012Z,6.00
2019-05-18T04:04:13.803Z,6.02
2019-05-18T04:06:40.681Z,6.03
2019-05-18T04:09:07.438Z,6.06
2019-05-18T04:11:34.168Z,6.05
2019-05-18T04:14:00.950Z,6.10
2019-05-18T04:16:27.691Z,6.15
2019-05-18T04:18:54.439Z,6.14
2019-05-18T04:21:21.184Z,6.29
2019-05-18T04:23:47.966Z,6.41
2019-05-18T04:26:14.675Z,6.45
2019-05-18T04:28:41.444Z,6.50
2019-05-18T04:31:08.200Z,6.54
2019-05-18T04:33:34.993Z,6.58
2019-05-18T04:36:01.709Z,6.59
2019-05-18T04:38:28.506Z,6.63
2019-05-18T04:40:55.258Z,6.65
2019-05-18T04:43:22.043Z,6.68
2019-05-18T04:45:48.762Z,6.68
2019-05-18T04:48:15.548Z,6.69
2019-05-18T04:50:42.254Z,6.67
2019-05-18T04:53:09.073Z,6.67
2019-05-18T04:55:35.790Z,6.77
2019-05-18T04:58:02.700Z,6.82
2019-05-18T05:00:29.448Z,6.89
2019-05-18T05:02:56.175Z,6.88
2019-05-18T05:05:22.932Z,6.91
2019-05-18T05:07:49.703Z,6.94
2019-05-18T05:10:16.470Z,7.00
2019-05-18T05:12:43.182Z,7.04
2019-05-18T05:15:09.959Z,7.07
2019-05-18T05:17:36.672Z,7.09
2019-05-18T05:20:18.697Z,7.13
2019-05-18T05:22:34.888Z,7.17
2019-05-18T05:25:01.714Z,7.20
2019-05-18T05:27:28.427Z,7.25
2019-05-18T05:29:55.232Z,7.32
2019-05-18T05:32:21.949Z,7.38
2019-05-18T05:34:48.673Z,7.46
2019-05-18T05:37:15.467Z,7.54
2019-05-18T05:39:42.233Z,7.59
2019-05-18T05:42:09.007Z,7.65
2019-05-18T05:44:35.727Z,7.69
2019-05-18T05:47:02.574Z,7.74
2019-05-18T05:49:29.300Z,7.80
2019-05-18T05:51:56.067Z,7.90
2019-05-18T05:54:22.772Z,7.99
2019-05-18T05:56:49.549Z,8.06
2019-05-18T05:59:16.306Z,8.15
2019-05-18T06:01:43.078Z,8.23
2019-05-18T06:04:09.778Z,8.32
2019-05-18T06:06:36.597Z,8.40
2019-05-18T06:09:05.555Z,8.47
2019-05-18T06:11:32.350Z,8.52
2019-05-18T06:13:59.100Z,8.58
2019-05-18T06:16:25.905Z,8.68
2019-05-18T06:18:52.631Z,8.76
2019-05-18T06:21:19.438Z,8.83
2019-05-18T06:23:46.159Z,8.91
2019-05-18T06:26:12.904Z,8.98
2019-05-18T06:28:39.651Z,9.05
2019-05-18T06:31:06.387Z,9.12
2019-05-18T06:33:33.177Z,9.20
2019-05-18T06:35:59.915Z,9.26
2019-05-18T06:38:26.733Z,9.32
2019-05-18T06:40:53.457Z,9.37
2019-05-18T06:43:20.204Z,9.44
2019-05-18T06:45:46.979Z,9.49
2019-05-18T06:48:13.741Z,9.55
2019-05-18T06:50:41.598Z,9.59
2019-05-18T06:53:08.369Z,9.64
2019-05-18T06:55:35.421Z,9.67
2019-05-18T06:58:02.544Z,9.71
2019-05-18T07:00:29.367Z,9.77
2019-05-18T07:02:56.098Z,9.77
2019-05-18T07:05:22.840Z,9.84
2019-05-18T07:07:49.739Z,9.86
2019-05-18T07:10:16.533Z,9.89
2019-05-18T07:12:43.271Z,9.95
2019-05-18T07:15:10.512Z,9.97
2019-05-18T07:17:37.255Z,10.00
2019-05-18T07:20:04.788Z,10.06
2019-05-18T07:22:31.595Z,10.09
2019-05-18T07:24:58.314Z,10.11
2019-05-18T07:27:25.077Z,10.16
2019-05-18T07:29:51.845Z,10.19
2019-05-18T07:32:18.594Z,10.17
2019-05-18T07:34:45.349Z,10.18
2019-05-18T07:37:12.228Z,10.12
2019-05-18T07:39:38.962Z,10.15
2019-05-18T07:42:05.691Z,10.11
2019-05-18T07:44:32.605Z,10.13
2019-05-18T07:46:59.325Z,10.11
2019-05-18T07:49:26.096Z,10.14
2019-05-18T07:51:53.013Z,10.17
2019-05-18T07:54:19.773Z,10.15
2019-05-18T07:56:46.469Z,10.18
2019-05-18T07:59:13.311Z,10.20
2019-05-18T08:01:40.021Z,10.20
2019-05-18T08:04:06.791Z,10.18
2019-05-18T08:06:33.536Z,10.17
2019-05-18T08:09:00.278Z,10.21
2019-05-18T08:11:27.076Z,10.23
2019-05-18T08:13:53.889Z,10.25
2019-05-18T08:16:20.625Z,10.35
2019-05-18T08:18:47.332Z,10.40
2019-05-18T08:21:14.151Z,10.46
2019-05-18T08:23:40.909Z,10.52
2019-05-18T08:26:07.667Z,10.46
2019-05-18T08:28:34.416Z,10.52
2019-05-18T08:31:01.154Z,10.56
2019-05-18T08:33:27.892Z,10.59
2019-05-18T08:35:54.718Z,10.65
2019-05-18T08:38:21.468Z,10.72
2019-05-18T08:40:48.213Z,10.80
2019-05-18T08:43:15.001Z,10.84
2019-05-18T08:45:41.738Z,10.87
2019-05-18T08:48:08.585Z,10.86
2019-05-18T08:50:35.391Z,10.87
2019-05-18T08:53:02.110Z,10.90
2019-05-18T08:55:28.861Z,10.95
2019-05-18T08:57:55.649Z,11.05
2019-05-18T09:00:22.499Z,11.16
2019-05-18T09:02:49.234Z,11.22
2019-05-18T09:05:17.932Z,11.25
2019-05-18T09:07:44.627Z,11.30
2019-05-18T09:10:11.657Z,11.32
2019-05-18T09:12:38.598Z,11.35
2019-05-18T09:15:08.138Z,11.38
2019-05-18T09:17:34.878Z,11.38
2019-05-18T09:20:04.431Z,11.39
2019-05-18T09:22:31.165Z,11.28
2019-05-18T09:24:57.897Z,11.10
2019-05-18T09:27:24.668Z,11.05
2019-05-18T09:29:51.409Z,11.28
2019-05-18T09:32:18.130Z,11.37
2019-05-18T09:34:44.949Z,11.33
2019-05-18T09:37:11.988Z,11.39
2019-05-18T09:39:38.728Z,11.39
2019-05-18T09:42:06.466Z,11.36
2019-05-18T09:44:33.283Z,11.27
2019-05-18T09:46:59.991Z,11.14
2019-05-18T09:49:27.138Z,11.17
2019-05-18T09:51:53.873Z,11.15
2019-05-18T09:54:20.596Z,11.09
2019-05-18T09:56:47.354Z,11.16
2019-05-18T09:59:14.084Z,11.19
2019-05-18T10:01:40.842Z,11.21
2019-05-18T10:04:07.625Z,11.19
2019-05-18T10:06:34.359Z,11.18
2019-05-18T10:09:01.127Z,11.25
2019-05-18T10:11:27.998Z,11.30
2019-05-18T10:13:54.821Z,11.23
2019-05-18T10:16:21.576Z,11.29
2019-05-18T10:18:48.606Z,11.30
2019-05-18T10:21:16.052Z,11.37
2019-05-18T10:23:42.790Z,11.44
2019-05-18T10:26:09.588Z,11.51
2019-05-18T10:28:37.626Z,11.55
2019-05-18T10:31:04.420Z,11.69
2019-05-18T10:33:31.249Z,11.65
2019-05-18T10:35:58.001Z,11.62
2019-05-18T10:38:24.767Z,11.68
2019-05-18T10:40:51.603Z,11.69
2019-05-18T10:43:18.424Z,11.63
2019-05-18T10:45:45.481Z,11.57
2019-05-18T10:48:12.374Z,11.55
2019-05-18T10:50:39.399Z,11.61
2019-05-18T10:53:06.137Z,11.68
2019-05-18T10:55:32.999Z,11.73
2019-05-18T10:58:00.225Z,11.75
2019-05-18T11:00:26.978Z,11.91
2019-05-18T11:02:53.812Z,12.09
2019-05-18T11:05:20.880Z,12.03
2019-05-18T11:07:47.625Z,12.04
2019-05-18T11:10:16.830Z,11.91
2019-05-18T11:12:43.643Z,11.78
2019-05-18T11:15:13.648Z,11.82
2019-05-18T11:17:40.470Z,11.82
2019-05-18T11:20:08.906Z,11.78
2019-05-18T11:22:35.635Z,11.72
2019-05-18T11:25:04.143Z,11.57
2019-05-18T11:27:31.024Z,11.68
2019-05-18T11:29:57.758Z,11.61
2019-05-18T11:32:24.537Z,11.54
2019-05-18T11:34:51.246Z,11.54
2019-05-18T11:37:18.026Z,11.54
2019-05-18T11:39:44.815Z,11.63
2019-05-18T11:42:11.556Z,11.65
2019-05-18T11:44:38.286Z,11.66
2019-05-18T11:47:05.112Z,11.71
2019-05-18T11:49:31.856Z,11.66
2019-05-18T11:51:58.602Z,11.74
2019-05-18T11:54:25.403Z,11.74
2019-05-18T11:56:52.158Z,11.82
2019-05-18T11:59:18.868Z,11.79
2019-05-18T12:01:45.665Z,11.81
2019-05-18T12:04:12.393Z,11.88
2019-05-18T12:06:39.146Z,12.03
2019-05-18T12:09:06.054Z,12.22
2019-05-18T12:11:32.777Z,12.38
2019-05-18T12:13:59.568Z,12.58
2019-05-18T12:16:26.457Z,12.80
2019-05-18T12:18:53.319Z,12.96
2019-05-18T12:21:20.051Z,13.05
2019-05-18T12:23:47.275Z,13.05
2019-05-18T12:26:14.002Z,13.08
2019-05-18T12:28:40.788Z,13.12
2019-05-18T12:31:07.715Z,13.07
2019-05-18T12:33:34.472Z,13.04
2019-05-18T12:36:01.208Z,12.99
2019-05-18T12:38:28.604Z,13.06
2019-05-18T12:40:55.348Z,12.96
2019-05-18T12:43:23.446Z,13.01
2019-05-18T12:45:50.199Z,13.02
2019-05-18T12:48:16.963Z,13.02
2019-05-18T12:50:43.722Z,13.00
2019-05-18T12:53:10.507Z,12.93
2019-05-18T12:55:37.234Z,12.77
2019-05-18T12:58:03.979Z,12.66
2019-05-18T13:00:31.287Z,12.62
2019-05-18T13:02:58.023Z,12.55
2019-05-18T13:05:24.773Z,12.58
2019-05-18T13:07:51.655Z,12.46
2019-05-18T13:10:19.391Z,12.39
2019-05-18T13:12:46.112Z,12.32
2019-05-18T13:15:15.566Z,12.30
2019-05-18T13:17:42.321Z,12.25
2019-05-18T13:20:11.660Z,12.14
2019-05-18T13:22:38.465Z,12.06
2019-05-18T13:25:06.595Z,12.04
2019-05-18T13:27:39.265Z,12.00
2019-05-18T13:30:03.290Z,11.79
2019-05-18T13:32:29.999Z,11.80
2019-05-18T13:34:56.791Z,11.90
2019-05-18T13:37:23.735Z,11.98
2019-05-18T13:39:50.833Z,12.06
2019-05-18T13:42:17.573Z,12.07
2019-05-18T13:44:44.365Z,11.99
2019-05-18T13:47:11.098Z,11.96
2019-05-18T13:49:37.835Z,12.03
2019-05-18T13:52:04.744Z,12.07
2019-05-18T13:54:31.490Z,12.08
2019-05-18T13:56:58.236Z,12.10
2019-05-18T13:59:25.062Z,12.06
2019-05-18T14:01:54.987Z,12.12
2019-05-18T14:04:20.329Z,12.13
2019-05-18T14:06:47.240Z,12.06
2019-05-18T14:09:13.985Z,12.08
2019-05-18T14:11:52.918Z,12.13
2019-05-18T14:14:19.662Z,12.12
2019-05-18T14:16:46.439Z,12.12
2019-05-18T14:19:13.291Z,12.14
2019-05-18T14:21:40.004Z,12.17
2019-05-18T14:24:06.729Z,12.15
2019-05-18T14:26:33.678Z,12.15
2019-05-18T14:29:00.372Z,12.15
2019-05-18T14:31:27.130Z,12.23
2019-05-18T14:33:53.899Z,12.19
2019-05-18T14:36:20.650Z,12.19
2019-05-18T14:38:47.391Z,12.23
2019-05-18T14:41:14.208Z,12.28
2019-05-18T14:44:00.660Z,12.31
2019-05-18T14:46:28.432Z,12.29
2019-05-18T14:48:55.162Z,12.23
2019-05-18T14:51:22.244Z,12.13
2019-05-18T14:53:49.075Z,12.12
2019-05-18T14:56:15.849Z,12.09
2019-05-18T14:58:42.605Z,12.05
2019-05-18T15:01:09.763Z,12.05
2019-05-18T15:03:36.585Z,12.05
2019-05-18T15:06:03.412Z,12.03
2019-05-18T15:08:30.372Z,12.01
2019-05-18T15:10:57.109Z,12.01
2019-05-18T15:13:23.855Z,12.03
2019-05-18T15:15:50.809Z,12.05
2019-05-18T15:18:17.546Z,12.07
2019-05-18T15:20:44.302Z,12.08
2019-05-18T15:23:11.182Z,12.11
2019-05-18T15:25:50.278Z,12.14
2019-05-18T15:28:06.463Z,12.17
2019-05-18T15:30:33.259Z,12.17
2019-05-18T15:33:00.395Z,12.20
2019-05-18T15:35:27.112Z,12.18
2019-05-18T15:37:53.907Z,12.20
2019-05-18T15:40:20.611Z,12.25
2019-05-18T15:42:47.344Z,12.25
2019-05-18T15:45:14.372Z,12.25
2019-05-18T15:47:41.104Z,12.24
2019-05-18T15:50:09.156Z,12.25
2019-05-18T15:52:35.938Z,12.30
2019-05-18T15:55:05.926Z,12.32
2019-05-18T15:57:32.728Z,12.22
2019-05-18T16:00:00.561Z,12.13
2019-05-18T16:02:27.279Z,12.05
2019-05-18T16:04:54.007Z,11.97
2019-05-18T16:07:20.813Z,11.93
2019-05-18T16:09:47.576Z,11.86
2019-05-18T16:12:14.303Z,11.87
2019-05-18T16:14:41.224Z,11.89
2019-05-18T16:17:08.102Z,11.87
2019-05-18T16:19:34.838Z,11.88
2019-05-18T16:22:01.942Z,11.87
2019-05-18T16:24:29.230Z,11.86
2019-05-18T16:26:56.042Z,11.85
2019-05-18T16:29:22.823Z,11.90
2019-05-18T16:31:52.603Z,11.88
2019-05-18T16:34:19.547Z,11.86
2019-05-18T16:36:46.436Z,11.88
2019-05-18T16:39:13.191Z,11.87
2019-05-18T16:41:39.890Z,11.85
2019-05-18T16:44:06.779Z,11.83
2019-05-18T16:46:33.527Z,11.80
2019-05-18T16:49:00.241Z,11.78
2019-05-18T16:51:27.021Z,11.78
2019-05-18T16:53:53.772Z,11.76
2019-05-18T16:56:20.513Z,11.76
2019-05-18T16:58:47.412Z,11.74
2019-05-18T17:01:14.225Z,11.73
2019-05-18T17:03:40.940Z,11.70
2019-05-18T17:06:07.740Z,11.66
2019-05-18T17:08:34.476Z,11.64
2019-05-18T17:11:01.234Z,11.61
2019-05-18T17:13:28.052Z,11.57
2019-05-18T17:15:54.849Z,11.57
2019-05-18T17:18:21.618Z,11.52
2019-05-18T17:20:48.403Z,11.46
2019-05-18T17:23:15.136Z,11.40
2019-05-18T17:25:41.876Z,11.35
2019-05-18T17:28:08.748Z,11.33
2019-05-18T17:30:35.487Z,11.31
2019-05-18T17:33:02.226Z,11.31
2019-05-18T17:35:30.262Z,11.28
2019-05-18T17:37:57.027Z,11.24
2019-05-18T17:40:23.746Z,11.21
2019-05-18T17:42:50.575Z,11.17
2019-05-18T17:45:17.339Z,11.18
2019-05-18T17:47:44.064Z,11.16
2019-05-18T17:50:11.788Z,11.15
2019-05-18T17:52:38.519Z,11.14
2019-05-18T17:55:06.753Z,11.11
2019-05-18T17:57:33.649Z,11.06
2019-05-18T18:00:00.408Z,11.03
2019-05-18T18:02:27.238Z,10.99
2019-05-18T18:04:54.364Z,10.94
2019-05-18T18:07:21.232Z,10.93
2019-05-18T18:09:47.967Z,10.91
2019-05-18T18:12:14.803Z,10.90
2019-05-18T18:14:43.453Z,10.88
2019-05-18T18:17:10.190Z,10.85
2019-05-18T18:19:37.037Z,10.85
2019-05-18T18:22:03.769Z,10.85
2019-05-18T18:24:30.479Z,10.82
2019-05-18T18:26:57.268Z,10.83
2019-05-18T18:29:24.017Z,10.88
2019-05-18T18:31:50.731Z,10.88
2019-05-18T18:34:17.628Z,10.87
2019-05-18T18:36:44.385Z,10.84
2019-05-18T18:39:11.113Z,10.82
2019-05-18T18:41:37.927Z,10.80
2019-05-18T18:44:04.647Z,10.74
2019-05-18T18:46:31.400Z,10.71
2019-05-18T18:48:58.174Z,10.67
2019-05-18T18:51:24.953Z,10.61
2019-05-18T18:53:51.862Z,10.56
2019-05-18T18:56:18.861Z,10.57
2019-05-18T18:58:45.673Z,10.55
2019-05-18T19:01:12.402Z,10.54
2019-05-18T19:03:39.308Z,10.52
2019-05-18T19:06:06.105Z,10.52
2019-05-18T19:08:32.837Z,10.57
2019-05-18T19:10:59.649Z,10.55
2019-05-18T19:13:26.387Z,10.51
2019-05-18T19:15:53.137Z,10.51
2019-05-18T19:18:19.991Z,10.52
2019-05-18T19:20:46.735Z,10.51
2019-05-18T19:23:13.476Z,10.50
2019-05-18T19:25:40.356Z,10.48
2019-05-18T19:28:07.124Z,10.48
2019-05-18T19:30:33.837Z,10.49
2019-05-18T19:33:00.707Z,10.44
2019-05-18T19:35:27.455Z,10.44
2019-05-18T19:37:54.172Z,10.42
2019-05-18T19:40:21.650Z,10.39
2019-05-18T19:42:48.399Z,10.36
2019-05-18T19:45:15.214Z,10.36
2019-05-18T19:47:42.003Z,10.35
2019-05-18T19:50:10.756Z,10.33
2019-05-18T19:52:37.566Z,10.31
2019-05-18T19:55:05.575Z,10.29
2019-05-18T19:57:32.292Z,10.31
2019-05-18T19:59:59.013Z,10.30
2019-05-18T20:02:25.883Z,10.30
2019-05-18T20:05:06.306Z,10.28
2019-05-18T20:07:21.187Z,10.27
2019-05-18T20:09:47.927Z,10.26
2019-05-18T20:12:14.705Z,10.22
2019-05-18T20:14:41.519Z,10.21
2019-05-18T20:17:08.337Z,10.18
2019-05-18T20:19:39.126Z,10.15
2019-05-18T20:22:03.641Z,10.10
2019-05-18T20:24:30.429Z,10.03
2019-05-18T20:26:57.162Z,10.00
2019-05-18T20:29:23.868Z,9.99
2019-05-18T20:31:50.644Z,9.99
2019-05-18T20:34:17.392Z,9.93
2019-05-18T20:36:44.130Z,9.93
2019-05-18T20:39:10.901Z,9.93
2019-05-18T20:41:37.650Z,9.90
2019-05-18T20:44:04.405Z,9.92
2019-05-18T20:46:31.192Z,9.88
2019-05-18T20:48:57.951Z,9.88
2019-05-18T20:51:24.694Z,9.85
2019-05-18T20:53:51.587Z,9.87
2019-05-18T20:56:18.317Z,9.85
2019-05-18T20:58:45.044Z,9.84
2019-05-18T21:01:11.862Z,9.82
2019-05-18T21:03:38.601Z,9.82
2019-05-18T21:06:05.362Z,9.81
2019-05-18T21:08:32.172Z,9.81
2019-05-18T21:10:58.897Z,9.74
2019-05-18T21:13:25.655Z,9.69
2019-05-18T21:15:52.543Z,9.67
2019-05-18T21:18:19.301Z,9.68
2019-05-18T21:20:46.057Z,9.72
2019-05-18T21:23:12.893Z,9.73
2019-05-18T21:25:39.609Z,9.77
2019-05-18T21:28:06.348Z,9.76
2019-05-18T21:30:33.234Z,9.75
2019-05-18T21:32:59.988Z,9.69
2019-05-18T21:35:26.688Z,9.76
2019-05-18T21:37:53.451Z,9.74
2019-05-18T21:40:20.224Z,9.75
2019-05-18T21:42:46.969Z,9.70
2019-05-18T21:45:13.860Z,9.67
2019-05-18T21:47:40.621Z,9.69
2019-05-18T21:50:07.930Z,9.68
2019-05-18T21:52:34.714Z,9.65
2019-05-18T21:55:01.483Z,9.65
2019-05-18T21:57:28.196Z,9.66
2019-05-18T21:59:54.981Z,9.66
2019-05-18T22:02:21.733Z,9.70
2019-05-18T22:04:48.474Z,9.71
2019-05-18T22:07:15.270Z,9.67
2019-05-18T22:09:42.011Z,9.63
2019-05-18T22:12:08.731Z,9.62
2019-05-18T22:14:35.610Z,9.62
2019-05-18T22:17:02.336Z,9.61
2019-05-18T22:19:29.128Z,9.58
2019-05-18T22:21:55.927Z,9.60
2019-05-18T22:24:22.641Z,9.59
2019-05-18T22:26:49.389Z,9.60
2019-05-18T22:29:16.186Z,9.57
2019-05-18T22:31:42.903Z,9.58
2019-05-18T22:34:09.631Z,9.59
2019-05-18T22:36:36.549Z,9.58
2019-05-18T22:39:05.676Z,9.57
2019-05-18T22:41:32.821Z,9.57
2019-05-18T22:43:59.615Z,9.56
2019-05-18T22:46:26.339Z,9.57
2019-05-18T22:48:53.065Z,9.55
2019-05-18T22:51:19.850Z,9.56
2019-05-18T22:53:46.731Z,9.57
2019-05-18T22:56:13.413Z,9.57
2019-05-18T22:58:40.304Z,9.58
2019-05-18T23:01:07.031Z,9.57
2019-05-18T23:03:33.783Z,9.56
2019-05-18T23:06:00.603Z,9.55
2019-05-18T23:08:27.373Z,9.57
2019-05-18T23:10:54.113Z,9.56
2019-05-18T23:13:20.971Z,9.57
2019-05-18T23:15:47.708Z,9.55
2019-05-18T23:18:14.457Z,9.54
2019-05-18T23:20:41.382Z,9.52
2019-05-18T23:23:08.117Z,9.50
2019-05-18T23:25:34.883Z,9.50
2019-05-18T23:28:01.684Z,9.49
2019-05-18T23:30:28.403Z,9.49
2019-05-18T23:32:55.156Z,9.48
2019-05-18T23:35:21.958Z,9.50
2019-05-18T23:37:48.685Z,9.52
2019-05-18T23:40:16.123Z,9.50
2019-05-18T23:42:43.000Z,9.48
2019-05-18T23:45:09.866Z,9.49
2019-05-18T23:47:36.599Z,9.51
2019-05-18T23:50:04.559Z,9.54
2019-05-18T23:52:31.336Z,9.52
2019-05-18T23:54:58.043Z,9.52
2019-05-18T23:57:24.852Z,9.54
2019-05-18T23:59:51.569Z,9.54
